sensor_id;sensor_type;location;lat;lon;timestamp;temperature;humidity
56542;DHT22;42438;53.174;6.730;2023-11-21T00:00:15;8.70;99.90
56542;DHT22;42438;53.174;6.730;2023-11-21T00:02:46;8.70;99.90
56542;DHT22;42438;53.174;6.730;2023-11-21T00:05:17;8.70;99.90
56542;DHT22;42438;53.174;6.730;2023-11-21T00:07:48;8.70;99.90
56542;DHT22;42438;53.174;6.730;2023-11-21T00:10:19;8.80;99.90
56542;DHT22;42438;53.174;6.730;2023-11-21T00:12:49;8.70;99.90
56542;DHT22;42438;53.174;6.730;2023-11-21T00:15:20;8.70;99.90
56542;DHT22;42438;53.174;6.730;2023-11-21T00:17:52;8.70;99.90
56542;DHT22;42438;53.174;6.730;2023-11-21T00:20:22;9.40;99.90
56542;DHT22;42438;53.174;6.730;2023-11-21T00:22:53;8.70;99.90
56542;DHT22;42438;53.174;6.730;2023-11-21T00:25:23;8.70;99.90
56542;DHT22;42438;53.174;6.730;2023-11-21T00:27:55;8.60;99.90
56542;DHT22;42438;53.174;6.730;2023-11-21T00:30:25;8.60;99.90
56542;DHT22;42438;53.174;6.730;2023-11-21T00:32:56;8.60;99.90
56542;DHT22;42438;53.174;6.730;2023-11-21T00:35:27;9.20;99.90
56542;DHT22;42438;53.174;6.730;2023-11-21T00:37:57;8.70;99.90
56542;DHT22;42438;53.174;6.730;2023-11-21T00:40:29;8.70;99.90
56542;DHT22;42438;53.174;6.730;2023-11-21T00:42:59;8.70;99.90
56542;DHT22;42438;53.174;6.730;2023-11-21T00:45:30;8.70;99.90
56542;DHT22;42438;53.174;6.730;2023-11-21T00:48:00;8.70;99.90
56542;DHT22;42438;53.174;6.730;2023-11-21T00:50:31;8.70;99.90
56542;DHT22;42438;53.174;6.730;2023-11-21T00:53:02;8.80;99.90
56542;DHT22;42438;53.174;6.730;2023-11-21T00:55:33;8.80;99.90
56542;DHT22;42438;53.174;6.730;2023-11-21T00:58:05;8.70;99.90
56542;DHT22;42438;53.174;6.730;2023-11-21T01:00:37;8.80;99.90
56542;DHT22;42438;53.174;6.730;2023-11-21T01:03:09;8.80;99.90
56542;DHT22;42438;53.174;6.730;2023-11-21T01:05:40;9.00;99.90
56542;DHT22;42438;53.174;6.730;2023-11-21T01:08:11;9.10;99.90
56542;DHT22;42438;53.174;6.730;2023-11-21T01:10:42;8.90;99.90
56542;DHT22;42438;53.174;6.730;2023-11-21T01:13:14;8.90;99.90
56542;DHT22;42438;53.174;6.730;2023-11-21T01:15:45;9.00;99.90
56542;DHT22;42438;53.174;6.730;2023-11-21T01:18:16;8.90;99.90
56542;DHT22;42438;53.174;6.730;2023-11-21T01:20:47;8.90;99.90
56542;DHT22;42438;53.174;6.730;2023-11-21T01:23:17;8.90;99.90
56542;DHT22;42438;53.174;6.730;2023-11-21T01:25:48;8.90;99.90
56542;DHT22;42438;53.174;6.730;2023-11-21T01:28:19;8.90;99.90
56542;DHT22;42438;53.174;6.730;2023-11-21T01:30:50;9.00;99.90
56542;DHT22;42438;53.174;6.730;2023-11-21T01:33:20;8.90;99.90
56542;DHT22;42438;53.174;6.730;2023-11-21T01:35:51;9.00;99.90
56542;DHT22;42438;53.174;6.730;2023-11-21T01:38:25;9.00;99.90
56542;DHT22;42438;53.174;6.730;2023-11-21T01:40:56;9.00;99.90
56542;DHT22;42438;53.174;6.730;2023-11-21T01:43:27;9.00;99.90
56542;DHT22;42438;53.174;6.730;2023-11-21T01:45:58;9.00;99.90
56542;DHT22;42438;53.174;6.730;2023-11-21T01:48:29;9.00;99.90
56542;DHT22;42438;53.174;6.730;2023-11-21T01:51:00;9.70;99.90
56542;DHT22;42438;53.174;6.730;2023-11-21T01:53:31;9.00;99.90
56542;DHT22;42438;53.174;6.730;2023-11-21T01:56:02;9.00;99.90
56542;DHT22;42438;53.174;6.730;2023-11-21T01:58:34;9.00;99.90
56542;DHT22;42438;53.174;6.730;2023-11-21T02:01:04;9.00;99.90
56542;DHT22;42438;53.174;6.730;2023-11-21T02:03:35;9.00;99.90
56542;DHT22;42438;53.174;6.730;2023-11-21T02:06:06;8.90;99.90
56542;DHT22;42438;53.174;6.730;2023-11-21T02:08:37;8.90;99.90
56542;DHT22;42438;53.174;6.730;2023-11-21T02:11:08;9.50;99.90
56542;DHT22;42438;53.174;6.730;2023-11-21T02:13:39;9.10;99.90
56542;DHT22;42438;53.174;6.730;2023-11-21T02:16:17;9.20;99.90
56542;DHT22;42438;53.174;6.730;2023-11-21T02:18:48;9.40;99.90
56542;DHT22;42438;53.174;6.730;2023-11-21T02:21:19;8.90;99.90
56542;DHT22;42438;53.174;6.730;2023-11-21T02:23:49;8.90;99.90
56542;DHT22;42438;53.174;6.730;2023-11-21T02:26:21;8.90;99.90
56542;DHT22;42438;53.174;6.730;2023-11-21T02:28:52;9.00;99.90
56542;DHT22;42438;53.174;6.730;2023-11-21T02:31:23;9.00;99.90
56542;DHT22;42438;53.174;6.730;2023-11-21T02:33:54;9.00;99.90
56542;DHT22;42438;53.174;6.730;2023-11-21T02:36:24;8.90;99.90
56542;DHT22;42438;53.174;6.730;2023-11-21T02:38:56;9.00;99.90
56542;DHT22;42438;53.174;6.730;2023-11-21T02:41:26;9.00;99.90
56542;DHT22;42438;53.174;6.730;2023-11-21T02:43:57;9.20;99.90
56542;DHT22;42438;53.174;6.730;2023-11-21T02:46:28;8.90;99.90
56542;DHT22;42438;53.174;6.730;2023-11-21T02:48:59;8.90;99.90
56542;DHT22;42438;53.174;6.730;2023-11-21T02:51:30;9.00;99.90
56542;DHT22;42438;53.174;6.730;2023-11-21T02:54:01;8.90;99.90
56542;DHT22;42438;53.174;6.730;2023-11-21T02:56:34;9.00;99.90
56542;DHT22;42438;53.174;6.730;2023-11-21T02:59:04;9.00;99.90
56542;DHT22;42438;53.174;6.730;2023-11-21T03:01:35;9.00;99.90
56542;DHT22;42438;53.174;6.730;2023-11-21T03:04:06;9.00;99.90
56542;DHT22;42438;53.174;6.730;2023-11-21T03:06:37;8.90;99.90
56542;DHT22;42438;53.174;6.730;2023-11-21T03:09:07;9.00;99.90
56542;DHT22;42438;53.174;6.730;2023-11-21T03:11:38;9.00;99.90
56542;DHT22;42438;53.174;6.730;2023-11-21T03:14:09;9.50;99.90
56542;DHT22;42438;53.174;6.730;2023-11-21T03:16:39;9.00;99.90
56542;DHT22;42438;53.174;6.730;2023-11-21T03:19:11;9.00;99.90
56542;DHT22;42438;53.174;6.730;2023-11-21T03:21:42;9.20;99.90
56542;DHT22;42438;53.174;6.730;2023-11-21T03:24:13;9.00;99.90
56542;DHT22;42438;53.174;6.730;2023-11-21T03:26:45;8.90;99.90
56542;DHT22;42438;53.174;6.730;2023-11-21T03:29:17;9.00;99.90
56542;DHT22;42438;53.174;6.730;2023-11-21T03:31:47;9.00;99.90
56542;DHT22;42438;53.174;6.730;2023-11-21T03:34:26;9.00;99.90
56542;DHT22;42438;53.174;6.730;2023-11-21T03:36:56;9.00;99.90
56542;DHT22;42438;53.174;6.730;2023-11-21T03:39:27;8.90;99.90
56542;DHT22;42438;53.174;6.730;2023-11-21T03:41:59;8.90;99.90
56542;DHT22;42438;53.174;6.730;2023-11-21T03:44:30;8.90;99.90
56542;DHT22;42438;53.174;6.730;2023-11-21T03:47:01;8.90;99.90
56542;DHT22;42438;53.174;6.730;2023-11-21T03:49:32;8.90;99.90
56542;DHT22;42438;53.174;6.730;2023-11-21T03:52:02;9.00;99.90
56542;DHT22;42438;53.174;6.730;2023-11-21T03:54:33;8.90;99.90
56542;DHT22;42438;53.174;6.730;2023-11-21T03:57:04;9.00;99.90
56542;DHT22;42438;53.174;6.730;2023-11-21T03:59:35;8.90;99.90
56542;DHT22;42438;53.174;6.730;2023-11-21T04:02:05;9.00;99.90
56542;DHT22;42438;53.174;6.730;2023-11-21T04:04:38;9.00;99.90
56542;DHT22;42438;53.174;6.730;2023-11-21T04:07:08;9.00;99.90
56542;DHT22;42438;53.174;6.730;2023-11-21T04:09:39;9.00;99.90
56542;DHT22;42438;53.174;6.730;2023-11-21T04:12:11;8.90;99.90
56542;DHT22;42438;53.174;6.730;2023-11-21T04:14:42;9.00;99.90
56542;DHT22;42438;53.174;6.730;2023-11-21T04:17:12;9.00;99.90
56542;DHT22;42438;53.174;6.730;2023-11-21T04:19:43;8.90;99.90
56542;DHT22;42438;53.174;6.730;2023-11-21T04:22:14;9.00;99.90
56542;DHT22;42438;53.174;6.730;2023-11-21T04:24:44;8.90;99.90
56542;DHT22;42438;53.174;6.730;2023-11-21T04:27:15;9.00;99.90
56542;DHT22;42438;53.174;6.730;2023-11-21T04:29:48;9.00;99.90
56542;DHT22;42438;53.174;6.730;2023-11-21T04:32:19;9.00;99.90
56542;DHT22;42438;53.174;6.730;2023-11-21T04:34:50;8.90;99.90
56542;DHT22;42438;53.174;6.730;2023-11-21T04:37:20;8.90;99.90
56542;DHT22;42438;53.174;6.730;2023-11-21T04:39:51;9.00;99.90
56542;DHT22;42438;53.174;6.730;2023-11-21T04:42:22;8.90;99.90
56542;DHT22;42438;53.174;6.730;2023-11-21T04:44:52;8.90;99.90
56542;DHT22;42438;53.174;6.730;2023-11-21T04:47:23;8.90;99.90
56542;DHT22;42438;53.174;6.730;2023-11-21T04:49:54;8.90;99.90
56542;DHT22;42438;53.174;6.730;2023-11-21T04:52:24;8.90;99.90
56542;DHT22;42438;53.174;6.730;2023-11-21T04:54:55;9.00;99.90
56542;DHT22;42438;53.174;6.730;2023-11-21T04:57:27;8.90;99.90
56542;DHT22;42438;53.174;6.730;2023-11-21T04:59:59;9.00;99.90
56542;DHT22;42438;53.174;6.730;2023-11-21T05:02:29;9.00;99.90
56542;DHT22;42438;53.174;6.730;2023-11-21T05:05:00;9.00;99.90
56542;DHT22;42438;53.174;6.730;2023-11-21T05:07:32;9.10;99.90
56542;DHT22;42438;53.174;6.730;2023-11-21T05:10:04;9.40;99.90
56542;DHT22;42438;53.174;6.730;2023-11-21T05:12:39;8.90;99.90
56542;DHT22;42438;53.174;6.730;2023-11-21T05:15:13;9.00;99.90
56542;DHT22;42438;53.174;6.730;2023-11-21T05:17:45;9.00;99.90
56542;DHT22;42438;53.174;6.730;2023-11-21T05:20:16;9.00;99.90
56542;DHT22;42438;53.174;6.730;2023-11-21T05:22:52;9.00;99.90
56542;DHT22;42438;53.174;6.730;2023-11-21T05:25:23;9.00;99.90
56542;DHT22;42438;53.174;6.730;2023-11-21T05:27:53;9.00;99.90
56542;DHT22;42438;53.174;6.730;2023-11-21T05:30:25;9.00;99.90
56542;DHT22;42438;53.174;6.730;2023-11-21T05:32:56;9.00;99.90
56542;DHT22;42438;53.174;6.730;2023-11-21T05:35:27;8.90;99.90
56542;DHT22;42438;53.174;6.730;2023-11-21T05:37:57;8.90;99.90
56542;DHT22;42438;53.174;6.730;2023-11-21T05:40:28;9.00;99.90
56542;DHT22;42438;53.174;6.730;2023-11-21T05:43:00;9.00;99.90
56542;DHT22;42438;53.174;6.730;2023-11-21T05:45:31;9.10;99.90
56542;DHT22;42438;53.174;6.730;2023-11-21T05:48:01;9.00;99.90
56542;DHT22;42438;53.174;6.730;2023-11-21T05:50:33;8.90;99.90
56542;DHT22;42438;53.174;6.730;2023-11-21T05:53:04;9.00;99.90
56542;DHT22;42438;53.174;6.730;2023-11-21T05:55:35;9.40;99.90
56542;DHT22;42438;53.174;6.730;2023-11-21T05:58:05;8.90;99.90
56542;DHT22;42438;53.174;6.730;2023-11-21T06:00:38;9.00;99.90
56542;DHT22;42438;53.174;6.730;2023-11-21T06:03:09;9.00;99.90
56542;DHT22;42438;53.174;6.730;2023-11-21T06:05:40;9.00;99.90
56542;DHT22;42438;53.174;6.730;2023-11-21T06:08:11;9.00;99.90
56542;DHT22;42438;53.174;6.730;2023-11-21T06:10:41;9.00;99.90
56542;DHT22;42438;53.174;6.730;2023-11-21T06:13:13;9.10;99.90
56542;DHT22;42438;53.174;6.730;2023-11-21T06:15:44;9.00;99.90
56542;DHT22;42438;53.174;6.730;2023-11-21T06:18:15;9.00;99.90
56542;DHT22;42438;53.174;6.730;2023-11-21T06:20:46;9.00;99.90
56542;DHT22;42438;53.174;6.730;2023-11-21T06:23:17;9.00;99.90
56542;DHT22;42438;53.174;6.730;2023-11-21T06:25:48;9.00;99.90
56542;DHT22;42438;53.174;6.730;2023-11-21T06:28:19;9.00;99.90
56542;DHT22;42438;53.174;6.730;2023-11-21T06:30:49;9.00;99.90
56542;DHT22;42438;53.174;6.730;2023-11-21T06:33:21;8.90;99.90
56542;DHT22;42438;53.174;6.730;2023-11-21T06:35:52;9.00;99.90
56542;DHT22;42438;53.174;6.730;2023-11-21T06:38:22;8.90;99.90
56542;DHT22;42438;53.174;6.730;2023-11-21T06:40:53;8.90;99.90
56542;DHT22;42438;53.174;6.730;2023-11-21T06:43:25;8.80;99.90
56542;DHT22;42438;53.174;6.730;2023-11-21T06:45:57;8.80;99.90
56542;DHT22;42438;53.174;6.730;2023-11-21T06:48:28;8.80;99.90
56542;DHT22;42438;53.174;6.730;2023-11-21T06:51:00;8.80;99.90
56542;DHT22;42438;53.174;6.730;2023-11-21T06:53:31;8.90;99.90
56542;DHT22;42438;53.174;6.730;2023-11-21T06:56:01;8.90;99.90
56542;DHT22;42438;53.174;6.730;2023-11-21T06:58:33;8.80;99.90
56542;DHT22;42438;53.174;6.730;2023-11-21T07:01:05;9.20;99.90
56542;DHT22;42438;53.174;6.730;2023-11-21T07:03:37;8.80;99.90
56542;DHT22;42438;53.174;6.730;2023-11-21T07:06:08;8.70;99.90
56542;DHT22;42438;53.174;6.730;2023-11-21T07:08:39;8.70;99.90
56542;DHT22;42438;53.174;6.730;2023-11-21T07:11:09;8.80;99.90
56542;DHT22;42438;53.174;6.730;2023-11-21T07:13:40;8.70;99.90
56542;DHT22;42438;53.174;6.730;2023-11-21T07:16:11;8.60;99.90
56542;DHT22;42438;53.174;6.730;2023-11-21T07:18:42;8.60;99.90
56542;DHT22;42438;53.174;6.730;2023-11-21T07:21:13;8.60;99.90
56542;DHT22;42438;53.174;6.730;2023-11-21T07:23:43;8.60;99.90
56542;DHT22;42438;53.174;6.730;2023-11-21T07:26:14;8.60;99.90
56542;DHT22;42438;53.174;6.730;2023-11-21T07:28:45;8.60;99.90
56542;DHT22;42438;53.174;6.730;2023-11-21T07:31:15;8.60;99.90
56542;DHT22;42438;53.174;6.730;2023-11-21T07:33:46;8.60;99.90
56542;DHT22;42438;53.174;6.730;2023-11-21T07:36:20;8.60;99.90
56542;DHT22;42438;53.174;6.730;2023-11-21T07:38:54;8.60;99.90
56542;DHT22;42438;53.174;6.730;2023-11-21T07:41:24;8.90;99.90
56542;DHT22;42438;53.174;6.730;2023-11-21T07:43:55;8.60;99.90
56542;DHT22;42438;53.174;6.730;2023-11-21T07:46:26;8.50;99.90
56542;DHT22;42438;53.174;6.730;2023-11-21T07:48:57;8.50;99.90
56542;DHT22;42438;53.174;6.730;2023-11-21T07:51:28;8.50;99.90
56542;DHT22;42438;53.174;6.730;2023-11-21T07:53:59;8.50;99.90
56542;DHT22;42438;53.174;6.730;2023-11-21T07:56:29;8.50;99.90
56542;DHT22;42438;53.174;6.730;2023-11-21T07:59:00;8.50;99.90
56542;DHT22;42438;53.174;6.730;2023-11-21T08:01:31;8.50;99.90
56542;DHT22;42438;53.174;6.730;2023-11-21T08:04:04;8.40;99.90
56542;DHT22;42438;53.174;6.730;2023-11-21T08:06:35;8.50;99.90
56542;DHT22;42438;53.174;6.730;2023-11-21T08:09:05;8.50;99.90
56542;DHT22;42438;53.174;6.730;2023-11-21T08:11:38;8.50;99.90
56542;DHT22;42438;53.174;6.730;2023-11-21T08:14:09;8.50;99.90
56542;DHT22;42438;53.174;6.730;2023-11-21T08:16:40;8.40;99.90
56542;DHT22;42438;53.174;6.730;2023-11-21T08:19:10;8.50;99.90
56542;DHT22;42438;53.174;6.730;2023-11-21T08:21:41;8.40;99.90
56542;DHT22;42438;53.174;6.730;2023-11-21T08:24:12;8.50;99.90
56542;DHT22;42438;53.174;6.730;2023-11-21T08:26:42;8.50;99.90
56542;DHT22;42438;53.174;6.730;2023-11-21T08:29:13;8.50;99.90
56542;DHT22;42438;53.174;6.730;2023-11-21T08:31:44;8.40;99.90
56542;DHT22;42438;53.174;6.730;2023-11-21T08:34:17;8.50;99.90
56542;DHT22;42438;53.174;6.730;2023-11-21T08:36:47;8.40;99.90
56542;DHT22;42438;53.174;6.730;2023-11-21T08:39:18;8.40;99.90
56542;DHT22;42438;53.174;6.730;2023-11-21T08:41:50;8.40;99.90
56542;DHT22;42438;53.174;6.730;2023-11-21T08:44:24;8.40;99.90
56542;DHT22;42438;53.174;6.730;2023-11-21T08:46:55;8.40;99.90
56542;DHT22;42438;53.174;6.730;2023-11-21T08:49:25;8.30;99.90
56542;DHT22;42438;53.174;6.730;2023-11-21T08:51:58;8.30;99.90
56542;DHT22;42438;53.174;6.730;2023-11-21T08:54:30;8.40;99.90
56542;DHT22;42438;53.174;6.730;2023-11-21T08:57:01;8.40;99.90
56542;DHT22;42438;53.174;6.730;2023-11-21T08:59:32;8.40;99.90
56542;DHT22;42438;53.174;6.730;2023-11-21T09:02:03;8.80;99.90
56542;DHT22;42438;53.174;6.730;2023-11-21T09:04:34;8.30;99.90
56542;DHT22;42438;53.174;6.730;2023-11-21T09:07:04;8.30;99.90
56542;DHT22;42438;53.174;6.730;2023-11-21T09:09:35;8.20;99.90
56542;DHT22;42438;53.174;6.730;2023-11-21T09:12:06;8.30;99.90
56542;DHT22;42438;53.174;6.730;2023-11-21T09:14:37;8.30;99.90
56542;DHT22;42438;53.174;6.730;2023-11-21T09:17:09;8.30;99.90
56542;DHT22;42438;53.174;6.730;2023-11-21T09:19:43;8.30;99.90
56542;DHT22;42438;53.174;6.730;2023-11-21T09:22:16;8.30;99.90
56542;DHT22;42438;53.174;6.730;2023-11-21T09:24:47;8.30;99.90
56542;DHT22;42438;53.174;6.730;2023-11-21T09:27:19;8.30;99.90
56542;DHT22;42438;53.174;6.730;2023-11-21T09:29:52;8.30;99.90
56542;DHT22;42438;53.174;6.730;2023-11-21T09:32:23;9.00;99.90
56542;DHT22;42438;53.174;6.730;2023-11-21T09:34:54;8.60;98.50
56542;DHT22;42438;53.174;6.730;2023-11-21T09:37:28;8.20;97.20
56542;DHT22;42438;53.174;6.730;2023-11-21T09:39:59;8.30;95.10
56542;DHT22;42438;53.174;6.730;2023-11-21T09:42:36;8.30;93.40
56542;DHT22;42438;53.174;6.730;2023-11-21T09:45:26;8.30;91.00
56542;DHT22;42438;53.174;6.730;2023-11-21T09:47:58;8.50;76.90
56542;DHT22;42438;53.174;6.730;2023-11-21T09:50:29;8.40;75.70
56542;DHT22;42438;53.174;6.730;2023-11-21T09:53:22;8.40;70.70
56542;DHT22;42438;53.174;6.730;2023-11-21T09:55:54;8.40;64.20
56542;DHT22;42438;53.174;6.730;2023-11-21T09:58:25;8.80;58.10
56542;DHT22;42438;53.174;6.730;2023-11-21T10:00:59;8.40;55.00
56542;DHT22;42438;53.174;6.730;2023-11-21T10:03:35;8.40;38.00
56542;DHT22;42438;53.174;6.730;2023-11-21T10:06:09;8.40;29.50
56542;DHT22;42438;53.174;6.730;2023-11-21T10:08:41;8.40;5.00
56542;DHT22;42438;53.174;6.730;2023-11-21T10:11:12;8.40;14.50
56542;DHT22;42438;53.174;6.730;2023-11-21T10:13:45;8.70;10.70
56542;DHT22;42438;53.174;6.730;2023-11-21T10:16:19;8.50;6.30
56542;DHT22;42438;53.174;6.730;2023-11-21T10:18:52;8.60;5.20
56542;DHT22;42438;53.174;6.730;2023-11-21T10:21:26;8.60;1.00
56542;DHT22;42438;53.174;6.730;2023-11-21T10:23:56;8.60;1.00
56542;DHT22;42438;53.174;6.730;2023-11-21T10:26:28;8.70;1.00
56542;DHT22;42438;53.174;6.730;2023-11-21T10:29:00;8.70;1.00
56542;DHT22;42438;53.174;6.730;2023-11-21T10:31:31;9.30;1.00
56542;DHT22;42438;53.174;6.730;2023-11-21T10:34:19;8.60;1.00
56542;DHT22;42438;53.174;6.730;2023-11-21T10:36:50;8.60;1.00
56542;DHT22;42438;53.174;6.730;2023-11-21T10:39:21;8.60;1.00
56542;DHT22;42438;53.174;6.730;2023-11-21T10:41:55;8.50;1.00
56542;DHT22;42438;53.174;6.730;2023-11-21T10:44:26;8.50;1.00
56542;DHT22;42438;53.174;6.730;2023-11-21T10:46:56;8.50;99.90
56542;DHT22;42438;53.174;6.730;2023-11-21T10:49:28;8.40;99.90
56542;DHT22;42438;53.174;6.730;2023-11-21T10:51:59;8.50;99.90
56542;DHT22;42438;53.174;6.730;2023-11-21T10:54:30;8.50;99.90
56542;DHT22;42438;53.174;6.730;2023-11-21T10:57:00;9.20;99.90
56542;DHT22;42438;53.174;6.730;2023-11-21T10:59:32;8.60;99.90
56542;DHT22;42438;53.174;6.730;2023-11-21T11:02:24;8.60;99.90
56542;DHT22;42438;53.174;6.730;2023-11-21T11:04:58;8.60;29.40
56542;DHT22;42438;53.174;6.730;2023-11-21T11:07:32;8.90;1.00
56542;DHT22;42438;53.174;6.730;2023-11-21T11:10:05;8.60;99.90
56542;DHT22;42438;53.174;6.730;2023-11-21T11:12:42;8.60;99.90
56542;DHT22;42438;53.174;6.730;2023-11-21T11:15:13;8.60;99.90
56542;DHT22;42438;53.174;6.730;2023-11-21T11:17:45;8.60;1.00
56542;DHT22;42438;53.174;6.730;2023-11-21T11:20:17;8.60;99.90
56542;DHT22;42438;53.174;6.730;2023-11-21T11:28:46;8.60;99.90
56542;DHT22;42438;53.174;6.730;2023-11-21T11:34:23;8.60;99.90
56542;DHT22;42438;53.174;6.730;2023-11-21T11:39:34;8.70;1.00
56542;DHT22;42438;53.174;6.730;2023-11-21T11:42:08;8.60;1.00
56542;DHT22;42438;53.174;6.730;2023-11-21T11:49:57;9.20;1.00
56542;DHT22;42438;53.174;6.730;2023-11-21T11:52:48;8.60;1.00
56542;DHT22;42438;53.174;6.730;2023-11-21T11:55:22;8.60;99.90
56542;DHT22;42438;53.174;6.730;2023-11-21T11:57:54;8.60;1.00
56542;DHT22;42438;53.174;6.730;2023-11-21T12:00:33;8.70;1.00
56542;DHT22;42438;53.174;6.730;2023-11-21T12:03:08;8.70;99.90
56542;DHT22;42438;53.174;6.730;2023-11-21T12:05:40;8.70;99.90
56542;DHT22;42438;53.174;6.730;2023-11-21T12:08:16;8.80;99.90
56542;DHT22;42438;53.174;6.730;2023-11-21T12:10:47;8.90;99.90
56542;DHT22;42438;53.174;6.730;2023-11-21T12:13:19;8.90;1.00
56542;DHT22;42438;53.174;6.730;2023-11-21T12:15:49;8.90;1.00
56542;DHT22;42438;53.174;6.730;2023-11-21T12:18:21;8.90;1.00
56542;DHT22;42438;53.174;6.730;2023-11-21T12:20:51;9.00;1.00
56542;DHT22;42438;53.174;6.730;2023-11-21T12:23:22;9.00;1.00
56542;DHT22;42438;53.174;6.730;2023-11-21T12:25:53;9.10;99.90
56542;DHT22;42438;53.174;6.730;2023-11-21T12:28:23;9.10;1.00
56542;DHT22;42438;53.174;6.730;2023-11-21T12:30:54;9.20;1.00
56542;DHT22;42438;53.174;6.730;2023-11-21T12:33:25;9.20;7.50
56542;DHT22;42438;53.174;6.730;2023-11-21T12:35:56;9.30;1.00
56542;DHT22;42438;53.174;6.730;2023-11-21T12:38:34;9.30;1.00
56542;DHT22;42438;53.174;6.730;2023-11-21T12:41:06;9.40;99.90
56542;DHT22;42438;53.174;6.730;2023-11-21T12:43:37;9.50;99.90
56542;DHT22;42438;53.174;6.730;2023-11-21T12:46:10;9.50;99.90
56542;DHT22;42438;53.174;6.730;2023-11-21T12:48:41;9.60;99.90
56542;DHT22;42438;53.174;6.730;2023-11-21T12:51:15;9.50;99.90
56542;DHT22;42438;53.174;6.730;2023-11-21T12:53:46;9.40;99.90
56542;DHT22;42438;53.174;6.730;2023-11-21T12:56:18;9.40;99.90
56542;DHT22;42438;53.174;6.730;2023-11-21T12:58:54;9.40;99.90
56542;DHT22;42438;53.174;6.730;2023-11-21T13:01:27;9.30;99.90
56542;DHT22;42438;53.174;6.730;2023-11-21T13:04:00;9.20;99.90
56542;DHT22;42438;53.174;6.730;2023-11-21T13:06:32;9.20;99.90
56542;DHT22;42438;53.174;6.730;2023-11-21T13:09:09;9.20;99.90
56542;DHT22;42438;53.174;6.730;2023-11-21T13:11:48;9.20;99.90
56542;DHT22;42438;53.174;6.730;2023-11-21T13:14:18;9.20;99.90
56542;DHT22;42438;53.174;6.730;2023-11-21T13:16:49;9.10;99.90
56542;DHT22;42438;53.174;6.730;2023-11-21T13:19:20;9.10;99.90
56542;DHT22;42438;53.174;6.730;2023-11-21T13:21:52;9.00;99.90
56542;DHT22;42438;53.174;6.730;2023-11-21T13:24:23;8.90;99.90
56542;DHT22;42438;53.174;6.730;2023-11-21T13:26:53;8.90;99.90
56542;DHT22;42438;53.174;6.730;2023-11-21T13:29:24;8.80;99.90
56542;DHT22;42438;53.174;6.730;2023-11-21T13:31:56;8.80;99.90
56542;DHT22;42438;53.174;6.730;2023-11-21T13:34:26;8.80;99.90
56542;DHT22;42438;53.174;6.730;2023-11-21T13:36:58;9.00;99.90
56542;DHT22;42438;53.174;6.730;2023-11-21T13:39:31;8.70;99.90
56542;DHT22;42438;53.174;6.730;2023-11-21T13:42:03;8.70;99.90
56542;DHT22;42438;53.174;6.730;2023-11-21T13:44:33;8.60;1.00
56542;DHT22;42438;53.174;6.730;2023-11-21T13:47:08;8.60;99.90
56542;DHT22;42438;53.174;6.730;2023-11-21T13:49:39;8.60;1.00
56542;DHT22;42438;53.174;6.730;2023-11-21T13:52:11;8.60;1.00
56542;DHT22;42438;53.174;6.730;2023-11-21T13:54:46;8.60;1.00
56542;DHT22;42438;53.174;6.730;2023-11-21T13:57:17;8.60;1.00
56542;DHT22;42438;53.174;6.730;2023-11-21T13:59:48;8.60;1.00
56542;DHT22;42438;53.174;6.730;2023-11-21T14:02:19;8.60;1.00
56542;DHT22;42438;53.174;6.730;2023-11-21T14:04:51;8.50;1.00
56542;DHT22;42438;53.174;6.730;2023-11-21T14:07:26;8.50;47.20
56542;DHT22;42438;53.174;6.730;2023-11-21T14:10:06;8.50;66.60
56542;DHT22;42438;53.174;6.730;2023-11-21T14:12:43;8.40;99.90
56542;DHT22;42438;53.174;6.730;2023-11-21T14:15:14;8.40;99.90
56542;DHT22;42438;53.174;6.730;2023-11-21T14:17:49;8.40;99.90
56542;DHT22;42438;53.174;6.730;2023-11-21T14:20:20;8.40;99.90
56542;DHT22;42438;53.174;6.730;2023-11-21T14:22:51;8.90;99.90
56542;DHT22;42438;53.174;6.730;2023-11-21T14:25:22;8.30;1.00
56542;DHT22;42438;53.174;6.730;2023-11-21T14:27:53;8.70;1.00
56542;DHT22;42438;53.174;6.730;2023-11-21T14:30:24;8.30;1.00
56542;DHT22;42438;53.174;6.730;2023-11-21T14:32:55;8.30;1.00
56542;DHT22;42438;53.174;6.730;2023-11-21T14:35:26;8.30;1.00
56542;DHT22;42438;53.174;6.730;2023-11-21T14:37:57;8.30;1.00
56542;DHT22;42438;53.174;6.730;2023-11-21T14:40:29;8.10;1.00
56542;DHT22;42438;53.174;6.730;2023-11-21T14:43:03;8.20;1.00
56542;DHT22;42438;53.174;6.730;2023-11-21T14:45:36;8.60;1.00
56542;DHT22;42438;53.174;6.730;2023-11-21T14:48:07;8.10;1.00
56542;DHT22;42438;53.174;6.730;2023-11-21T14:50:46;8.10;1.00
56542;DHT22;42438;53.174;6.730;2023-11-21T14:53:40;8.10;1.00
56542;DHT22;42438;53.174;6.730;2023-11-21T14:56:13;8.10;99.90
56542;DHT22;42438;53.174;6.730;2023-11-21T14:58:54;8.10;1.00
56542;DHT22;42438;53.174;6.730;2023-11-21T15:01:26;8.10;1.00
56542;DHT22;42438;53.174;6.730;2023-11-21T15:04:16;8.10;38.40
56542;DHT22;42438;53.174;6.730;2023-11-21T15:06:58;8.10;63.40
56542;DHT22;42438;53.174;6.730;2023-11-21T15:09:30;8.10;99.90
56542;DHT22;42438;53.174;6.730;2023-11-21T15:12:03;8.10;99.90
56542;DHT22;42438;53.174;6.730;2023-11-21T15:14:46;8.00;53.10
56542;DHT22;42438;53.174;6.730;2023-11-21T15:17:19;8.00;84.30
56542;DHT22;42438;53.174;6.730;2023-11-21T15:19:54;8.00;99.90
56542;DHT22;42438;53.174;6.730;2023-11-21T15:22:25;7.90;99.90
56542;DHT22;42438;53.174;6.730;2023-11-21T15:24:57;7.90;99.90
56542;DHT22;42438;53.174;6.730;2023-11-21T15:27:28;7.90;99.90
56542;DHT22;42438;53.174;6.730;2023-11-21T15:29:59;7.80;99.90
56542;DHT22;42438;53.174;6.730;2023-11-21T15:32:29;7.90;99.90
56542;DHT22;42438;53.174;6.730;2023-11-21T15:35:00;7.70;99.90
56542;DHT22;42438;53.174;6.730;2023-11-21T15:37:31;7.70;99.90
56542;DHT22;42438;53.174;6.730;2023-11-21T15:40:02;8.00;99.90
56542;DHT22;42438;53.174;6.730;2023-11-21T15:42:36;7.60;99.90
56542;DHT22;42438;53.174;6.730;2023-11-21T15:45:08;7.50;1.00
56542;DHT22;42438;53.174;6.730;2023-11-21T15:47:38;7.40;1.00
56542;DHT22;42438;53.174;6.730;2023-11-21T15:50:09;7.40;1.00
56542;DHT22;42438;53.174;6.730;2023-11-21T15:52:40;7.30;1.00
56542;DHT22;42438;53.174;6.730;2023-11-21T15:55:13;7.30;1.00
56542;DHT22;42438;53.174;6.730;2023-11-21T15:57:44;7.20;7.10
56542;DHT22;42438;53.174;6.730;2023-11-21T16:00:15;7.20;38.80
56542;DHT22;42438;53.174;6.730;2023-11-21T16:02:50;7.10;99.90
56542;DHT22;42438;53.174;6.730;2023-11-21T16:05:21;7.00;99.90
56542;DHT22;42438;53.174;6.730;2023-11-21T16:07:52;7.00;99.90
56542;DHT22;42438;53.174;6.730;2023-11-21T16:10:23;6.90;99.90
56542;DHT22;42438;53.174;6.730;2023-11-21T16:12:54;6.90;1.00
56542;DHT22;42438;53.174;6.730;2023-11-21T16:15:24;6.80;1.00
56542;DHT22;42438;53.174;6.730;2023-11-21T16:17:56;6.80;46.30
56542;DHT22;42438;53.174;6.730;2023-11-21T16:20:27;6.70;99.90
56542;DHT22;42438;53.174;6.730;2023-11-21T16:22:57;6.70;99.90
56542;DHT22;42438;53.174;6.730;2023-11-21T16:25:29;6.70;1.00
56542;DHT22;42438;53.174;6.730;2023-11-21T16:28:00;7.30;99.90
56542;DHT22;42438;53.174;6.730;2023-11-21T16:30:34;6.70;99.90
56542;DHT22;42438;53.174;6.730;2023-11-21T16:33:05;6.70;99.90